sensor_id;sensor_type;location;lat;lon;timestamp;P1;durP1;ratioP1;P2;durP2;ratioP2
21334;SDS011;69435;52.670;13.544;2023-06-19T00:01:40;11.70;;;10.73;;
21334;SDS011;69435;52.670;13.544;2023-06-19T00:04:06;11.80;;;10.63;;
21334;SDS011;69435;52.670;13.544;2023-06-19T00:06:40;11.63;;;10.70;;
21334;SDS011;69435;52.670;13.544;2023-06-19T00:09:06;11.63;;;10.57;;
21334;SDS011;69435;52.670;13.544;2023-06-19T00:11:37;11.23;;;10.37;;
21334;SDS011;69435;52.670;13.544;2023-06-19T00:14:03;11.30;;;10.40;;
21334;SDS011;69435;52.670;13.544;2023-06-19T00:16:30;10.57;;;9.67;;
21334;SDS011;69435;52.670;13.544;2023-06-19T00:19:09;11.50;;;10.50;;
21334;SDS011;69435;52.670;13.544;2023-06-19T00:21:39;11.93;;;11.03;;
21334;SDS011;69435;52.670;13.544;2023-06-19T00:24:09;11.87;;;10.77;;
21334;SDS011;69435;52.670;13.544;2023-06-19T00:26:38;11.80;;;10.80;;
21334;SDS011;69435;52.670;13.544;2023-06-19T00:29:13;13.07;;;11.97;;
21334;SDS011;69435;52.670;13.544;2023-06-19T00:31:39;12.50;;;11.30;;
21334;SDS011;69435;52.670;13.544;2023-06-19T00:34:08;12.40;;;11.40;;
21334;SDS011;69435;52.670;13.544;2023-06-19T00:36:34;12.73;;;11.73;;
21334;SDS011;69435;52.670;13.544;2023-06-19T00:39:17;12.07;;;11.00;;
21334;SDS011;69435;52.670;13.544;2023-06-19T00:41:43;12.87;;;11.80;;
21334;SDS011;69435;52.670;13.544;2023-06-19T00:44:10;13.77;;;10.63;;
21334;SDS011;69435;52.670;13.544;2023-06-19T00:46:39;12.20;;;11.07;;
21334;SDS011;69435;52.670;13.544;2023-06-19T00:49:06;12.13;;;11.13;;
21334;SDS011;69435;52.670;13.544;2023-06-19T00:51:42;12.47;;;11.13;;
21334;SDS011;69435;52.670;13.544;2023-06-19T00:54:14;13.03;;;11.97;;
21334;SDS011;69435;52.670;13.544;2023-06-19T00:56:42;12.87;;;11.67;;
21334;SDS011;69435;52.670;13.544;2023-06-19T00:59:16;12.30;;;11.10;;
21334;SDS011;69435;52.670;13.544;2023-06-19T01:01:49;12.27;;;11.17;;
21334;SDS011;69435;52.670;13.544;2023-06-19T01:04:18;11.73;;;10.83;;
21334;SDS011;69435;52.670;13.544;2023-06-19T01:06:52;14.03;;;12.70;;
21334;SDS011;69435;52.670;13.544;2023-06-19T01:09:36;12.30;;;11.23;;
21334;SDS011;69435;52.670;13.544;2023-06-19T01:12:15;12.70;;;11.73;;
21334;SDS011;69435;52.670;13.544;2023-06-19T01:17:27;13.23;;;12.10;;
21334;SDS011;69435;52.670;13.544;2023-06-19T01:19:58;12.40;;;11.40;;
21334;SDS011;69435;52.670;13.544;2023-06-19T01:22:28;13.17;;;12.17;;
21334;SDS011;69435;52.670;13.544;2023-06-19T01:24:57;13.07;;;12.07;;
21334;SDS011;69435;52.670;13.544;2023-06-19T01:27:24;12.80;;;11.83;;
21334;SDS011;69435;52.670;13.544;2023-06-19T01:29:54;13.37;;;12.13;;
21334;SDS011;69435;52.670;13.544;2023-06-19T01:35:12;12.03;;;11.10;;
21334;SDS011;69435;52.670;13.544;2023-06-19T01:37:42;13.13;;;12.07;;
21334;SDS011;69435;52.670;13.544;2023-06-19T01:40:22;13.17;;;12.07;;
21334;SDS011;69435;52.670;13.544;2023-06-19T01:42:52;13.07;;;11.97;;
21334;SDS011;69435;52.670;13.544;2023-06-19T01:45:38;12.37;;;11.37;;
21334;SDS011;69435;52.670;13.544;2023-06-19T01:48:04;13.33;;;12.07;;
21334;SDS011;69435;52.670;13.544;2023-06-19T01:50:30;13.00;;;12.00;;
21334;SDS011;69435;52.670;13.544;2023-06-19T01:52:55;15.03;;;13.60;;
21334;SDS011;69435;52.670;13.544;2023-06-19T01:55:36;17.27;;;13.17;;
21334;SDS011;69435;52.670;13.544;2023-06-19T01:58:02;13.57;;;12.33;;
21334;SDS011;69435;52.670;13.544;2023-06-19T02:00:28;13.43;;;12.37;;
21334;SDS011;69435;52.670;13.544;2023-06-19T02:02:58;16.93;;;13.47;;
21334;SDS011;69435;52.670;13.544;2023-06-19T02:05:33;14.40;;;13.17;;
21334;SDS011;69435;52.670;13.544;2023-06-19T02:07:59;14.97;;;13.70;;
21334;SDS011;69435;52.670;13.544;2023-06-19T02:10:28;15.50;;;14.10;;
21334;SDS011;69435;52.670;13.544;2023-06-19T02:13:02;13.63;;;12.63;;
21334;SDS011;69435;52.670;13.544;2023-06-19T02:15:28;14.30;;;12.97;;
21334;SDS011;69435;52.670;13.544;2023-06-19T02:17:57;14.83;;;13.53;;
21334;SDS011;69435;52.670;13.544;2023-06-19T02:20:23;16.77;;;15.00;;
21334;SDS011;69435;52.670;13.544;2023-06-19T02:23:10;14.87;;;13.57;;
21334;SDS011;69435;52.670;13.544;2023-06-19T02:25:36;14.53;;;13.43;;
21334;SDS011;69435;52.670;13.544;2023-06-19T02:28:20;15.60;;;13.93;;
21334;SDS011;69435;52.670;13.544;2023-06-19T02:30:45;14.90;;;13.70;;
21334;SDS011;69435;52.670;13.544;2023-06-19T02:33:11;15.27;;;14.07;;
21334;SDS011;69435;52.670;13.544;2023-06-19T02:35:41;15.30;;;13.83;;
21334;SDS011;69435;52.670;13.544;2023-06-19T02:38:12;16.03;;;14.53;;
21334;SDS011;69435;52.670;13.544;2023-06-19T02:40:39;15.17;;;13.73;;
21334;SDS011;69435;52.670;13.544;2023-06-19T02:43:05;15.10;;;13.90;;
21334;SDS011;69435;52.670;13.544;2023-06-19T02:45:31;15.70;;;14.37;;
21334;SDS011;69435;52.670;13.544;2023-06-19T02:47:59;14.77;;;13.47;;
21334;SDS011;69435;52.670;13.544;2023-06-19T02:50:28;15.80;;;14.30;;
21334;SDS011;69435;52.670;13.544;2023-06-19T02:52:54;16.97;;;15.57;;
21334;SDS011;69435;52.670;13.544;2023-06-19T02:55:22;15.40;;;14.10;;
21334;SDS011;69435;52.670;13.544;2023-06-19T02:57:48;17.13;;;15.07;;
21334;SDS011;69435;52.670;13.544;2023-06-19T03:00:32;17.27;;;15.77;;
21334;SDS011;69435;52.670;13.544;2023-06-19T03:03:00;16.37;;;14.97;;
21334;SDS011;69435;52.670;13.544;2023-06-19T03:05:32;15.73;;;14.37;;
21334;SDS011;69435;52.670;13.544;2023-06-19T03:07:57;16.57;;;15.00;;
21334;SDS011;69435;52.670;13.544;2023-06-19T03:10:23;16.90;;;15.47;;
21334;SDS011;69435;52.670;13.544;2023-06-19T03:12:49;16.20;;;14.80;;
21334;SDS011;69435;52.670;13.544;2023-06-19T03:15:20;16.87;;;15.27;;
21334;SDS011;69435;52.670;13.544;2023-06-19T03:17:49;17.20;;;15.87;;
21334;SDS011;69435;52.670;13.544;2023-06-19T03:20:18;14.80;;;13.73;;
21334;SDS011;69435;52.670;13.544;2023-06-19T03:22:45;16.27;;;14.97;;
21334;SDS011;69435;52.670;13.544;2023-06-19T03:25:11;16.80;;;15.17;;
21334;SDS011;69435;52.670;13.544;2023-06-19T03:27:40;16.83;;;15.03;;
21334;SDS011;69435;52.670;13.544;2023-06-19T03:30:18;15.70;;;14.43;;
21334;SDS011;69435;52.670;13.544;2023-06-19T03:32:44;16.63;;;15.00;;
21334;SDS011;69435;52.670;13.544;2023-06-19T03:35:18;16.43;;;14.97;;
21334;SDS011;69435;52.670;13.544;2023-06-19T03:37:44;17.07;;;15.57;;
21334;SDS011;69435;52.670;13.544;2023-06-19T03:40:28;17.53;;;15.93;;
21334;SDS011;69435;52.670;13.544;2023-06-19T03:42:54;16.60;;;15.20;;
21334;SDS011;69435;52.670;13.544;2023-06-19T03:45:20;17.17;;;15.73;;
21334;SDS011;69435;52.670;13.544;2023-06-19T03:48:01;17.27;;;15.77;;
21334;SDS011;69435;52.670;13.544;2023-06-19T03:50:26;18.73;;;17.10;;
21334;SDS011;69435;52.670;13.544;2023-06-19T03:52:52;17.90;;;16.43;;
21334;SDS011;69435;52.670;13.544;2023-06-19T03:55:18;17.73;;;16.07;;
21334;SDS011;69435;52.670;13.544;2023-06-19T03:58:02;17.97;;;16.30;;
21334;SDS011;69435;52.670;13.544;2023-06-19T04:00:28;17.63;;;16.00;;
21334;SDS011;69435;52.670;13.544;2023-06-19T04:02:54;17.53;;;16.03;;
21334;SDS011;69435;52.670;13.544;2023-06-19T04:05:20;16.20;;;14.80;;
21334;SDS011;69435;52.670;13.544;2023-06-19T04:07:48;16.67;;;15.17;;
21334;SDS011;69435;52.670;13.544;2023-06-19T04:10:14;16.40;;;15.07;;
21334;SDS011;69435;52.670;13.544;2023-06-19T04:12:40;15.93;;;14.63;;
21334;SDS011;69435;52.670;13.544;2023-06-19T04:15:06;15.93;;;14.60;;
21334;SDS011;69435;52.670;13.544;2023-06-19T04:17:33;16.07;;;14.63;;
21334;SDS011;69435;52.670;13.544;2023-06-19T04:19:59;15.93;;;14.50;;
21334;SDS011;69435;52.670;13.544;2023-06-19T04:22:30;16.27;;;14.77;;
21334;SDS011;69435;52.670;13.544;2023-06-19T04:24:56;15.23;;;14.13;;
21334;SDS011;69435;52.670;13.544;2023-06-19T04:27:22;16.47;;;15.17;;
21334;SDS011;69435;52.670;13.544;2023-06-19T04:29:47;15.00;;;13.73;;
21334;SDS011;69435;52.670;13.544;2023-06-19T04:32:13;16.03;;;14.83;;
21334;SDS011;69435;52.670;13.544;2023-06-19T04:34:39;16.37;;;14.17;;
21334;SDS011;69435;52.670;13.544;2023-06-19T04:37:11;15.73;;;14.53;;
21334;SDS011;69435;52.670;13.544;2023-06-19T04:39:37;15.30;;;14.13;;
21334;SDS011;69435;52.670;13.544;2023-06-19T04:42:06;16.57;;;15.10;;
21334;SDS011;69435;52.670;13.544;2023-06-19T04:44:32;16.27;;;14.97;;
21334;SDS011;69435;52.670;13.544;2023-06-19T04:46:59;14.97;;;13.67;;
21334;SDS011;69435;52.670;13.544;2023-06-19T04:49:28;17.50;;;15.90;;
21334;SDS011;69435;52.670;13.544;2023-06-19T04:51:58;15.40;;;14.20;;
21334;SDS011;69435;52.670;13.544;2023-06-19T04:54:24;15.67;;;14.07;;
21334;SDS011;69435;52.670;13.544;2023-06-19T04:56:50;16.07;;;14.60;;
21334;SDS011;69435;52.670;13.544;2023-06-19T04:59:16;16.07;;;14.53;;
21334;SDS011;69435;52.670;13.544;2023-06-19T05:01:48;16.03;;;14.57;;
21334;SDS011;69435;52.670;13.544;2023-06-19T05:04:14;14.53;;;13.43;;
21334;SDS011;69435;52.670;13.544;2023-06-19T05:06:40;15.47;;;14.17;;
21334;SDS011;69435;52.670;13.544;2023-06-19T05:09:07;15.53;;;14.33;;
21334;SDS011;69435;52.670;13.544;2023-06-19T05:11:33;15.33;;;14.13;;
21334;SDS011;69435;52.670;13.544;2023-06-19T05:14:02;15.83;;;14.43;;
21334;SDS011;69435;52.670;13.544;2023-06-19T05:16:30;15.60;;;14.00;;
21334;SDS011;69435;52.670;13.544;2023-06-19T05:18:56;15.07;;;13.87;;
21334;SDS011;69435;52.670;13.544;2023-06-19T05:21:22;14.60;;;13.60;;
21334;SDS011;69435;52.670;13.544;2023-06-19T05:24:06;16.87;;;15.57;;
21334;SDS011;69435;52.670;13.544;2023-06-19T05:26:31;16.33;;;14.87;;
21334;SDS011;69435;52.670;13.544;2023-06-19T05:28:57;15.77;;;14.37;;
21334;SDS011;69435;52.670;13.544;2023-06-19T05:31:23;16.17;;;14.77;;
21334;SDS011;69435;52.670;13.544;2023-06-19T05:33:49;16.13;;;14.67;;
21334;SDS011;69435;52.670;13.544;2023-06-19T05:36:17;15.37;;;14.27;;
21334;SDS011;69435;52.670;13.544;2023-06-19T05:38:43;16.33;;;15.00;;
21334;SDS011;69435;52.670;13.544;2023-06-19T05:41:09;16.63;;;15.13;;
21334;SDS011;69435;52.670;13.544;2023-06-19T05:43:38;15.93;;;14.67;;
21334;SDS011;69435;52.670;13.544;2023-06-19T05:46:22;15.50;;;14.30;;
21334;SDS011;69435;52.670;13.544;2023-06-19T05:48:48;15.87;;;14.53;;
21334;SDS011;69435;52.670;13.544;2023-06-19T05:51:13;16.23;;;14.70;;
21334;SDS011;69435;52.670;13.544;2023-06-19T05:53:42;15.57;;;14.10;;
21334;SDS011;69435;52.670;13.544;2023-06-19T05:56:08;16.67;;;15.37;;
21334;SDS011;69435;52.670;13.544;2023-06-19T05:58:46;16.17;;;14.67;;
21334;SDS011;69435;52.670;13.544;2023-06-19T06:01:11;14.77;;;13.50;;
21334;SDS011;69435;52.670;13.544;2023-06-19T06:03:37;16.03;;;14.47;;
21334;SDS011;69435;52.670;13.544;2023-06-19T06:06:04;15.83;;;14.33;;
21334;SDS011;69435;52.670;13.544;2023-06-19T06:08:33;17.00;;;15.57;;
21334;SDS011;69435;52.670;13.544;2023-06-19T06:11:05;15.77;;;14.17;;
21334;SDS011;69435;52.670;13.544;2023-06-19T06:13:31;15.30;;;13.93;;
21334;SDS011;69435;52.670;13.544;2023-06-19T06:16:03;15.17;;;14.00;;
21334;SDS011;69435;52.670;13.544;2023-06-19T06:18:31;14.80;;;13.80;;
21334;SDS011;69435;52.670;13.544;2023-06-19T06:21:00;15.53;;;14.07;;
21334;SDS011;69435;52.670;13.544;2023-06-19T06:23:27;17.17;;;15.17;;
21334;SDS011;69435;52.670;13.544;2023-06-19T06:25:56;16.87;;;15.27;;
21334;SDS011;69435;52.670;13.544;2023-06-19T06:28:27;15.60;;;14.20;;
21334;SDS011;69435;52.670;13.544;2023-06-19T06:30:53;16.70;;;15.17;;
21334;SDS011;69435;52.670;13.544;2023-06-19T06:33:20;16.30;;;14.90;;
21334;SDS011;69435;52.670;13.544;2023-06-19T06:36:04;16.47;;;15.00;;
21334;SDS011;69435;52.670;13.544;2023-06-19T06:38:30;16.43;;;14.83;;
21334;SDS011;69435;52.670;13.544;2023-06-19T06:40:58;16.50;;;15.10;;
21334;SDS011;69435;52.670;13.544;2023-06-19T06:43:27;15.53;;;14.33;;
21334;SDS011;69435;52.670;13.544;2023-06-19T06:45:53;16.07;;;14.57;;
21334;SDS011;69435;52.670;13.544;2023-06-19T06:48:20;15.40;;;14.13;;
21334;SDS011;69435;52.670;13.544;2023-06-19T06:50:48;16.60;;;15.20;;
21334;SDS011;69435;52.670;13.544;2023-06-19T06:53:14;15.40;;;14.13;;
21334;SDS011;69435;52.670;13.544;2023-06-19T06:55:40;16.40;;;14.80;;
21334;SDS011;69435;52.670;13.544;2023-06-19T06:58:08;15.77;;;14.50;;
21334;SDS011;69435;52.670;13.544;2023-06-19T07:00:40;15.50;;;14.20;;
21334;SDS011;69435;52.670;13.544;2023-06-19T07:03:06;15.50;;;13.97;;
21334;SDS011;69435;52.670;13.544;2023-06-19T07:05:32;14.50;;;13.40;;
21334;SDS011;69435;52.670;13.544;2023-06-19T07:08:16;14.40;;;13.17;;
21334;SDS011;69435;52.670;13.544;2023-06-19T07:10:42;14.23;;;13.23;;
21334;SDS011;69435;52.670;13.544;2023-06-19T07:13:08;15.43;;;14.23;;
21334;SDS011;69435;52.670;13.544;2023-06-19T07:15:33;15.23;;;13.60;;
21334;SDS011;69435;52.670;13.544;2023-06-19T07:17:59;15.20;;;13.97;;
21334;SDS011;69435;52.670;13.544;2023-06-19T07:20:33;15.63;;;14.37;;
21334;SDS011;69435;52.670;13.544;2023-06-19T07:23:17;15.07;;;13.73;;
21334;SDS011;69435;52.670;13.544;2023-06-19T07:25:44;15.10;;;13.90;;
21334;SDS011;69435;52.670;13.544;2023-06-19T07:28:13;14.83;;;13.60;;
21334;SDS011;69435;52.670;13.544;2023-06-19T07:30:49;17.70;;;13.50;;
21334;SDS011;69435;52.670;13.544;2023-06-19T07:33:17;14.83;;;13.43;;
21334;SDS011;69435;52.670;13.544;2023-06-19T07:35:42;13.60;;;12.47;;
21334;SDS011;69435;52.670;13.544;2023-06-19T07:38:11;13.27;;;12.27;;
21334;SDS011;69435;52.670;13.544;2023-06-19T07:40:49;14.23;;;12.87;;
21334;SDS011;69435;52.670;13.544;2023-06-19T07:43:15;14.10;;;13.00;;
21334;SDS011;69435;52.670;13.544;2023-06-19T07:45:42;13.37;;;12.33;;
21334;SDS011;69435;52.670;13.544;2023-06-19T07:48:08;13.70;;;12.60;;
21334;SDS011;69435;52.670;13.544;2023-06-19T07:50:37;14.10;;;13.00;;
21334;SDS011;69435;52.670;13.544;2023-06-19T07:53:21;12.67;;;11.43;;
21334;SDS011;69435;52.670;13.544;2023-06-19T07:55:47;13.27;;;12.07;;
21334;SDS011;69435;52.670;13.544;2023-06-19T07:58:13;13.00;;;11.90;;
21334;SDS011;69435;52.670;13.544;2023-06-19T08:00:48;12.67;;;11.73;;
21334;SDS011;69435;52.670;13.544;2023-06-19T08:03:13;11.90;;;11.00;;
21334;SDS011;69435;52.670;13.544;2023-06-19T08:05:45;13.10;;;12.07;;
21334;SDS011;69435;52.670;13.544;2023-06-19T08:08:17;12.33;;;11.20;;
21334;SDS011;69435;52.670;13.544;2023-06-19T08:10:49;12.77;;;11.77;;
21334;SDS011;69435;52.670;13.544;2023-06-19T08:13:23;13.85;;;11.45;;
21334;SDS011;69435;52.670;13.544;2023-06-19T08:16:04;13.10;;;11.90;;
21334;SDS011;69435;52.670;13.544;2023-06-19T08:18:31;11.93;;;11.02;;
21334;SDS011;69435;52.670;13.544;2023-06-19T08:21:06;12.90;;;11.90;;
21334;SDS011;69435;52.670;13.544;2023-06-19T08:23:32;12.63;;;11.73;;
21334;SDS011;69435;52.670;13.544;2023-06-19T08:26:10;13.07;;;11.98;;
21334;SDS011;69435;52.670;13.544;2023-06-19T08:28:37;12.80;;;11.60;;
21334;SDS011;69435;52.670;13.544;2023-06-19T08:31:09;13.05;;;12.05;;
21334;SDS011;69435;52.670;13.544;2023-06-19T08:33:38;13.32;;;12.23;;
21334;SDS011;69435;52.670;13.544;2023-06-19T08:36:04;12.90;;;11.80;;
21334;SDS011;69435;52.670;13.544;2023-06-19T08:38:30;12.53;;;11.53;;
21334;SDS011;69435;52.670;13.544;2023-06-19T08:41:08;12.40;;;11.47;;
21334;SDS011;69435;52.670;13.544;2023-06-19T08:43:34;12.73;;;11.83;;
21334;SDS011;69435;52.670;13.544;2023-06-19T08:46:18;12.77;;;11.48;;
21334;SDS011;69435;52.670;13.544;2023-06-19T08:48:47;15.68;;;11.85;;
21334;SDS011;69435;52.670;13.544;2023-06-19T08:51:12;12.30;;;11.38;;
21334;SDS011;69435;52.670;13.544;2023-06-19T08:54:01;12.93;;;11.68;;
21334;SDS011;69435;52.670;13.544;2023-06-19T08:56:30;12.88;;;11.90;;
21334;SDS011;69435;52.670;13.544;2023-06-19T08:59:09;12.05;;;11.15;;
21334;SDS011;69435;52.670;13.544;2023-06-19T09:01:37;12.93;;;11.93;;
21334;SDS011;69435;52.670;13.544;2023-06-19T09:04:10;12.40;;;11.40;;
21334;SDS011;69435;52.670;13.544;2023-06-19T09:06:51;10.65;;;9.85;;
21334;SDS011;69435;52.670;13.544;2023-06-19T09:09:21;13.45;;;11.07;;
21334;SDS011;69435;52.670;13.544;2023-06-19T09:12:05;12.18;;;10.90;;
21334;SDS011;69435;52.670;13.544;2023-06-19T09:14:40;12.40;;;11.50;;
21334;SDS011;69435;52.670;13.544;2023-06-19T09:17:27;11.75;;;10.70;;
21334;SDS011;69435;52.670;13.544;2023-06-19T09:19:53;12.15;;;11.20;;
21334;SDS011;69435;52.670;13.544;2023-06-19T09:22:22;12.48;;;11.48;;
21334;SDS011;69435;52.670;13.544;2023-06-19T09:25:02;12.27;;;11.23;;
21334;SDS011;69435;52.670;13.544;2023-06-19T09:27:34;11.93;;;11.05;;
21334;SDS011;69435;52.670;13.544;2023-06-19T09:30:14;12.32;;;11.32;;
21334;SDS011;69435;52.670;13.544;2023-06-19T09:32:41;13.15;;;12.05;;
21334;SDS011;69435;52.670;13.544;2023-06-19T09:35:07;12.95;;;11.73;;
21334;SDS011;69435;52.670;13.544;2023-06-19T09:37:33;13.70;;;12.50;;
21334;SDS011;69435;52.670;13.544;2023-06-19T09:40:08;14.85;;;13.13;;
21334;SDS011;69435;52.670;13.544;2023-06-19T09:42:38;14.55;;;13.45;;
21334;SDS011;69435;52.670;13.544;2023-06-19T09:45:09;13.88;;;12.75;;
21334;SDS011;69435;52.670;13.544;2023-06-19T09:47:56;15.10;;;13.68;;
21334;SDS011;69435;52.670;13.544;2023-06-19T09:50:22;13.50;;;12.45;;
21334;SDS011;69435;52.670;13.544;2023-06-19T09:52:52;13.68;;;12.48;;
21334;SDS011;69435;52.670;13.544;2023-06-19T09:55:20;14.27;;;13.07;;
21334;SDS011;69435;52.670;13.544;2023-06-19T09:57:49;13.57;;;12.68;;
21334;SDS011;69435;52.670;13.544;2023-06-19T10:00:18;13.57;;;12.50;;
21334;SDS011;69435;52.670;13.544;2023-06-19T10:02:48;13.90;;;12.70;;
21334;SDS011;69435;52.670;13.544;2023-06-19T10:05:14;13.23;;;12.23;;
21334;SDS011;69435;52.670;13.544;2023-06-19T10:07:44;13.80;;;12.50;;
21334;SDS011;69435;52.670;13.544;2023-06-19T10:10:24;13.55;;;12.55;;
21334;SDS011;69435;52.670;13.544;2023-06-19T10:12:57;13.10;;;12.20;;
21334;SDS011;69435;52.670;13.544;2023-06-19T10:15:28;13.52;;;12.43;;
21334;SDS011;69435;52.670;13.544;2023-06-19T10:18:00;14.32;;;12.57;;
21334;SDS011;69435;52.670;13.544;2023-06-19T10:20:44;13.68;;;12.43;;
21334;SDS011;69435;52.670;13.544;2023-06-19T10:23:12;12.68;;;11.68;;
21334;SDS011;69435;52.670;13.544;2023-06-19T10:25:43;12.82;;;11.60;;
21334;SDS011;69435;52.670;13.544;2023-06-19T10:28:36;12.98;;;11.88;;
21334;SDS011;69435;52.670;13.544;2023-06-19T10:31:05;12.00;;;11.10;;
21334;SDS011;69435;52.670;13.544;2023-06-19T10:33:42;12.00;;;11.20;;
21334;SDS011;69435;52.670;13.544;2023-06-19T10:36:18;12.93;;;11.77;;
21334;SDS011;69435;52.670;13.544;2023-06-19T10:38:53;12.48;;;11.63;;
21334;SDS011;69435;52.670;13.544;2023-06-19T10:41:21;12.50;;;11.50;;
21334;SDS011;69435;52.670;13.544;2023-06-19T10:44:01;12.20;;;11.30;;
21334;SDS011;69435;52.670;13.544;2023-06-19T10:46:31;12.13;;;11.23;;
21334;SDS011;69435;52.670;13.544;2023-06-19T10:49:00;12.13;;;11.20;;
21334;SDS011;69435;52.670;13.544;2023-06-19T10:51:38;12.43;;;11.43;;
21334;SDS011;69435;52.670;13.544;2023-06-19T10:54:09;11.60;;;10.73;;
21334;SDS011;69435;52.670;13.544;2023-06-19T10:56:37;12.55;;;11.50;;
21334;SDS011;69435;52.670;13.544;2023-06-19T10:59:21;12.93;;;11.60;;
21334;SDS011;69435;52.670;13.544;2023-06-19T11:01:48;12.65;;;11.75;;
21334;SDS011;69435;52.670;13.544;2023-06-19T11:04:15;12.48;;;11.48;;
21334;SDS011;69435;52.670;13.544;2023-06-19T11:06:42;12.27;;;11.43;;
21334;SDS011;69435;52.670;13.544;2023-06-19T11:09:28;13.07;;;12.07;;
21334;SDS011;69435;52.670;13.544;2023-06-19T11:11:56;14.57;;;12.60;;
21334;SDS011;69435;52.670;13.544;2023-06-19T11:14:40;11.63;;;10.93;;
21334;SDS011;69435;52.670;13.544;2023-06-19T11:17:07;12.48;;;11.45;;
21334;SDS011;69435;52.670;13.544;2023-06-19T11:19:33;13.35;;;12.15;;
21334;SDS011;69435;52.670;13.544;2023-06-19T11:22:02;11.93;;;11.13;;
21334;SDS011;69435;52.670;13.544;2023-06-19T11:24:30;12.30;;;11.25;;
21334;SDS011;69435;52.670;13.544;2023-06-19T11:26:56;12.02;;;11.32;;
21334;SDS011;69435;52.670;13.544;2023-06-19T11:29:33;12.73;;;11.68;;
21334;SDS011;69435;52.670;13.544;2023-06-19T11:32:07;13.98;;;12.68;;
21334;SDS011;69435;52.670;13.544;2023-06-19T11:34:36;12.38;;;11.57;;
21334;SDS011;69435;52.670;13.544;2023-06-19T11:37:11;12.82;;;11.95;;
21334;SDS011;69435;52.670;13.544;2023-06-19T11:39:38;12.93;;;11.88;;
21334;SDS011;69435;52.670;13.544;2023-06-19T11:42:04;12.68;;;11.82;;
21334;SDS011;69435;52.670;13.544;2023-06-19T11:44:31;13.73;;;12.45;;
21334;SDS011;69435;52.670;13.544;2023-06-19T11:46:57;13.13;;;12.02;;
21334;SDS011;69435;52.670;13.544;2023-06-19T11:49:25;13.05;;;11.82;;
21334;SDS011;69435;52.670;13.544;2023-06-19T11:51:53;13.40;;;12.40;;
21334;SDS011;69435;52.670;13.544;2023-06-19T11:54:19;13.98;;;12.98;;
21334;SDS011;69435;52.670;13.544;2023-06-19T11:56:45;13.52;;;12.25;;
21334;SDS011;69435;52.670;13.544;2023-06-19T11:59:12;13.77;;;12.40;;
21334;SDS011;69435;52.670;13.544;2023-06-19T12:01:47;12.82;;;11.82;;
21334;SDS011;69435;52.670;13.544;2023-06-19T12:04:13;12.70;;;11.80;;
21334;SDS011;69435;52.670;13.544;2023-06-19T12:06:49;13.65;;;12.27;;
21334;SDS011;69435;52.670;13.544;2023-06-19T12:09:17;12.55;;;11.75;;
21334;SDS011;69435;52.670;13.544;2023-06-19T12:11:43;13.15;;;12.02;;
21334;SDS011;69435;52.670;13.544;2023-06-19T12:14:28;12.30;;;11.30;;
21334;SDS011;69435;52.670;13.544;2023-06-19T12:16:53;12.88;;;11.80;;
21334;SDS011;69435;52.670;13.544;2023-06-19T12:19:19;13.38;;;12.27;;
21334;SDS011;69435;52.670;13.544;2023-06-19T12:21:48;12.00;;;11.20;;
21334;SDS011;69435;52.670;13.544;2023-06-19T12:24:14;11.45;;;10.65;;
21334;SDS011;69435;52.670;13.544;2023-06-19T12:26:39;12.80;;;11.77;;
21334;SDS011;69435;52.670;13.544;2023-06-19T12:29:16;12.27;;;11.38;;
21334;SDS011;69435;52.670;13.544;2023-06-19T12:31:48;11.32;;;10.57;;
21334;SDS011;69435;52.670;13.544;2023-06-19T12:34:14;12.68;;;11.77;;
21334;SDS011;69435;52.670;13.544;2023-06-19T12:36:54;12.40;;;11.35;;
21334;SDS011;69435;52.670;13.544;2023-06-19T12:39:22;11.77;;;10.98;;
21334;SDS011;69435;52.670;13.544;2023-06-19T12:41:48;11.95;;;11.05;;
21334;SDS011;69435;52.670;13.544;2023-06-19T12:44:29;10.90;;;10.20;;
21334;SDS011;69435;52.670;13.544;2023-06-19T12:47:13;11.48;;;10.68;;
21334;SDS011;69435;52.670;13.544;2023-06-19T12:49:40;12.50;;;11.30;;
21334;SDS011;69435;52.670;13.544;2023-06-19T12:52:11;12.18;;;10.88;;
21334;SDS011;69435;52.670;13.544;2023-06-19T12:54:56;12.75;;;11.23;;
21334;SDS011;69435;52.670;13.544;2023-06-19T12:57:24;12.90;;;11.73;;
21334;SDS011;69435;52.670;13.544;2023-06-19T12:59:50;11.88;;;11.07;;
21334;SDS011;69435;52.670;13.544;2023-06-19T13:02:16;12.55;;;11.65;;
21334;SDS011;69435;52.670;13.544;2023-06-19T13:04:47;12.52;;;11.30;;
21334;SDS011;69435;52.670;13.544;2023-06-19T13:07:13;12.63;;;11.63;;
21334;SDS011;69435;52.670;13.544;2023-06-19T13:09:39;12.80;;;11.90;;
21334;SDS011;69435;52.670;13.544;2023-06-19T13:12:07;12.40;;;11.40;;
21334;SDS011;69435;52.670;13.544;2023-06-19T13:14:34;13.57;;;12.57;;
21334;SDS011;69435;52.670;13.544;2023-06-19T13:16:59;11.95;;;11.15;;
21334;SDS011;69435;52.670;13.544;2023-06-19T13:19:25;13.15;;;12.15;;
21334;SDS011;69435;52.670;13.544;2023-06-19T13:21:51;13.80;;;12.40;;
21334;SDS011;69435;52.670;13.544;2023-06-19T13:24:20;12.63;;;11.70;;
21334;SDS011;69435;52.670;13.544;2023-06-19T13:26:45;13.55;;;12.43;;
21334;SDS011;69435;52.670;13.544;2023-06-19T13:29:11;13.55;;;12.13;;
21334;SDS011;69435;52.670;13.544;2023-06-19T13:31:44;12.90;;;11.98;;
21334;SDS011;69435;52.670;13.544;2023-06-19T13:34:10;12.73;;;11.63;;
21334;SDS011;69435;52.670;13.544;2023-06-19T13:37:05;13.77;;;12.77;;
21334;SDS011;69435;52.670;13.544;2023-06-19T13:39:36;13.75;;;12.82;;
21334;SDS011;69435;52.670;13.544;2023-06-19T13:42:03;12.63;;;11.68;;
21334;SDS011;69435;52.670;13.544;2023-06-19T13:44:29;13.68;;;12.48;;
21334;SDS011;69435;52.670;13.544;2023-06-19T13:46:57;13.00;;;12.10;;
21334;SDS011;69435;52.670;13.544;2023-06-19T13:49:32;14.18;;;13.27;;
21334;SDS011;69435;52.670;13.544;2023-06-19T13:51:57;12.85;;;11.73;;
21334;SDS011;69435;52.670;13.544;2023-06-19T13:54:23;13.20;;;12.10;;
21334;SDS011;69435;52.670;13.544;2023-06-19T13:56:49;11.57;;;10.68;;
21334;SDS011;69435;52.670;13.544;2023-06-19T13:59:28;10.15;;;9.45;;
21334;SDS011;69435;52.670;13.544;2023-06-19T14:01:53;10.27;;;9.52;;
21334;SDS011;69435;52.670;13.544;2023-06-19T14:04:19;9.40;;;8.70;;
21334;SDS011;69435;52.670;13.544;2023-06-19T14:06:51;11.18;;;8.75;;
21334;SDS011;69435;52.670;13.544;2023-06-19T14:09:19;9.40;;;8.65;;
21334;SDS011;69435;52.670;13.544;2023-06-19T14:11:45;9.27;;;8.65;;
21334;SDS011;69435;52.670;13.544;2023-06-19T14:14:11;9.45;;;8.45;;
21334;SDS011;69435;52.670;13.544;2023-06-19T14:16:37;9.05;;;8.45;;
21334;SDS011;69435;52.670;13.544;2023-06-19T14:19:02;9.00;;;8.38;;
21334;SDS011;69435;52.670;13.544;2023-06-19T14:21:28;8.85;;;8.25;;
21334;SDS011;69435;52.670;13.544;2023-06-19T14:23:54;10.15;;;9.45;;
21334;SDS011;69435;52.670;13.544;2023-06-19T14:26:20;9.70;;;8.88;;
21334;SDS011;69435;52.670;13.544;2023-06-19T14:28:46;8.60;;;8.10;;
21334;SDS011;69435;52.670;13.544;2023-06-19T14:31:21;10.10;;;9.35;;
21334;SDS011;69435;52.670;13.544;2023-06-19T14:34:02;9.70;;;9.10;;